Time;durP1;ratioP1;P1;durP2;ratioP2;P2;SDS_P1;SDS_P2;PMS_P1;PMS_P2;Temp;Humidity;BMP_temperature;BMP_pressure;BME280_temperature;BME280_humidity;BME280_pressure;Samples;Min_cycle;Max_cycle;Signal;HPM_P1;HPM_P2
2022/06/11 00:00:44;;;;;;;3.67;3.17;;;15.10;99.90;;;;;;5012015;28;20175;-91
2022/06/11 00:03:11;;;;;;;4.40;3.33;;;15.00;99.90;;;;;;5012019;28;20182;-91
2022/06/11 00:05:37;;;;;;;4.43;3.50;;;15.00;99.90;;;;;;4995766;28;20180;-91
2022/06/11 00:08:04;;;;;;;4.10;3.10;;;14.90;99.90;;;;;;5012237;28;20274;-91
2022/06/11 00:10:30;;;;;;;3.77;3.23;;;14.90;99.90;;;;;;5012263;28;20188;-91
2022/06/11 00:12:57;;;;;;;5.03;3.37;;;14.90;99.90;;;;;;4995401;28;20199;-91
2022/06/11 00:15:23;;;;;;;5.63;3.40;;;14.90;99.90;;;;;;4995468;28;20252;-91
2022/06/11 00:17:51;;;;;;;3.20;2.90;;;14.80;99.90;;;;;;5011405;28;20187;-91
2022/06/11 00:20:18;;;;;;;3.40;3.10;;;14.80;99.90;;;;;;4995297;28;20183;-90
2022/06/11 00:22:44;;;;;;;8.43;3.40;;;14.80;99.90;;;;;;5011593;28;20247;-91
2022/06/11 00:25:10;;;;;;;3.47;3.10;;;14.70;99.90;;;;;;4994863;28;20218;-91
2022/06/11 00:27:36;;;;;;;3.90;3.50;;;14.80;99.90;;;;;;4995429;28;20215;-91
2022/06/11 00:30:05;;;;;;;4.00;3.40;;;14.70;99.90;;;;;;5011111;28;20175;-91
2022/06/11 00:32:30;;;;;;;4.83;3.53;;;14.70;99.90;;;;;;5010920;28;20211;-91
2022/06/11 00:35:01;;;;;;;4.17;3.23;;;14.70;99.90;;;;;;4995293;28;20190;-91
2022/06/11 00:37:27;;;;;;;5.47;3.50;;;14.60;99.90;;;;;;5011744;28;20179;-91
2022/06/11 00:39:53;;;;;;;5.27;3.10;;;14.60;99.90;;;;;;4995060;28;20207;-91
2022/06/11 00:42:25;;;;;;;3.93;3.23;;;14.50;99.90;;;;;;4994479;28;20206;-91
2022/06/11 00:45:37;;;;;;;4.83;3.23;;;14.50;99.90;;;;;;5011319;28;20171;-92
2022/06/11 00:48:15;;;;;;;4.87;3.47;;;14.50;99.90;;;;;;4991459;28;20194;-91
2022/06/11 00:50:58;;;;;;;3.50;3.20;;;14.50;99.90;;;;;;5011130;28;20183;-91
2022/06/11 00:53:31;;;;;;;3.80;3.50;;;14.40;99.90;;;;;;4994351;28;20203;-91
2022/06/11 00:55:57;;;;;;;3.77;3.37;;;14.40;99.90;;;;;;5011070;28;20167;-91
2022/06/11 00:58:27;;;;;;;3.93;3.63;;;14.30;99.90;;;;;;5011026;28;20261;-91
2022/06/11 01:00:56;;;;;;;4.33;3.40;;;14.30;99.90;;;;;;4993706;28;20210;-91
2022/06/11 01:03:33;;;;;;;3.87;3.30;;;14.20;99.90;;;;;;4994283;28;20187;-91
2022/06/11 01:06:06;;;;;;;3.57;3.27;;;14.20;99.90;;;;;;5011208;28;20217;-91
2022/06/11 01:08:50;;;;;;;5.00;3.50;;;14.20;99.90;;;;;;4994616;28;20183;-91
2022/06/11 01:11:29;;;;;;;7.10;3.87;;;14.10;99.90;;;;;;4994350;28;20203;-91
2022/06/11 01:14:14;;;;;;;7.53;3.80;;;14.10;99.90;;;;;;4994195;28;20243;-91
2022/06/11 01:16:51;;;;;;;5.33;3.90;;;14.10;99.90;;;;;;4977601;28;20187;-91
2022/06/11 01:20:03;;;;;;;4.13;3.47;;;14.00;99.90;;;;;;5010707;28;20171;-91
2022/06/11 01:22:29;;;;;;;3.83;3.40;;;14.00;99.90;;;;;;4994525;28;20202;-91
2022/06/11 01:25:04;;;;;;;3.90;3.50;;;14.00;99.90;;;;;;4978639;28;20179;-91
2022/06/11 01:27:58;;;;;;;5.57;3.63;;;14.00;99.90;;;;;;5011181;28;20209;-92
2022/06/11 01:30:39;;;;;;;5.47;3.53;;;13.80;99.90;;;;;;4979098;28;20179;-91
2022/06/11 01:33:14;;;;;;;6.10;3.60;;;13.80;99.90;;;;;;5011858;28;20277;-91
2022/06/11 01:36:21;;;;;;;4.97;4.03;;;13.80;99.90;;;;;;5011758;28;20178;-91
2022/06/11 01:38:57;;;;;;;3.40;3.10;;;13.90;99.90;;;;;;5012258;28;20182;-91
2022/06/11 01:41:26;;;;;;;3.50;3.20;;;13.90;99.90;;;;;;5010474;28;20208;-92
2022/06/11 01:43:56;;;;;;;3.30;2.97;;;13.90;99.90;;;;;;4994346;28;20187;-91
2022/06/11 01:46:35;;;;;;;6.53;3.43;;;13.90;99.90;;;;;;5010520;28;20189;-91
2022/06/11 01:49:08;;;;;;;4.33;3.93;;;13.80;99.90;;;;;;4993864;28;20249;-91
2022/06/11 01:52:08;;;;;;;4.93;3.50;;;13.70;99.90;;;;;;4993662;28;20234;-91
2022/06/11 01:54:56;;;;;;;4.40;3.70;;;13.70;99.90;;;;;;5010449;28;20208;-91
2022/06/11 01:57:39;;;;;;;5.60;3.87;;;13.60;99.90;;;;;;4993699;28;20185;-91
2022/06/11 02:00:22;;;;;;;4.13;3.73;;;13.60;99.90;;;;;;5010010;28;20209;-92
2022/06/11 02:03:10;;;;;;;7.37;4.03;;;13.50;99.90;;;;;;4993392;28;20203;-91
2022/06/11 02:05:56;;;;;;;6.23;4.03;;;13.50;99.90;;;;;;5009982;28;20212;-91
2022/06/11 02:09:04;;;;;;;4.10;3.67;;;13.40;99.90;;;;;;5010511;28;20174;-91
2022/06/11 02:11:37;;;;;;;3.80;3.40;;;13.30;99.90;;;;;;4987216;28;20227;-91
2022/06/11 02:14:36;;;;;;;5.03;3.40;;;13.20;99.90;;;;;;5013847;28;20217;-91
2022/06/11 02:17:10;;;;;;;5.37;3.63;;;13.10;99.90;;;;;;5013791;28;20178;-91
2022/06/11 02:19:54;;;;;;;4.40;3.60;;;13.10;99.90;;;;;;5023224;28;20289;-91
2022/06/11 02:22:28;;;;;;;4.40;3.80;;;13.20;99.90;;;;;;5013309;28;20284;-91
2022/06/11 02:25:01;;;;;;;4.23;3.77;;;13.10;99.90;;;;;;5013744;28;20193;-90
2022/06/11 02:27:29;;;;;;;4.43;3.77;;;13.20;99.90;;;;;;4997507;28;20193;-92
2022/06/11 02:30:00;;;;;;;4.87;3.90;;;13.10;99.90;;;;;;4997050;28;20183;-90
2022/06/11 02:32:29;;;;;;;4.40;3.90;;;13.00;99.90;;;;;;4996918;28;20217;-91
2022/06/11 02:34:59;;;;;;;4.80;3.83;;;13.00;99.90;;;;;;5013200;28;20189;-92
2022/06/11 02:37:27;;;;;;;3.87;3.47;;;13.00;99.90;;;;;;4997326;28;20229;-91
2022/06/11 02:39:56;;;;;;;5.33;3.43;;;13.00;99.90;;;;;;4997180;28;20268;-91
2022/06/11 02:42:24;;;;;;;5.77;4.00;;;12.80;99.90;;;;;;4996934;28;20199;-91
2022/06/11 02:44:51;;;;;;;4.30;3.80;;;12.80;99.90;;;;;;5013097;28;20189;-91
2022/06/11 02:47:18;;;;;;;4.53;4.10;;;12.80;99.90;;;;;;5013355;28;20189;-91
2022/06/11 02:49:46;;;;;;;4.47;3.90;;;12.90;99.90;;;;;;5012890;28;20282;-91
2022/06/11 02:52:15;;;;;;;3.93;3.53;;;12.80;99.90;;;;;;5013045;28;20214;-91
2022/06/11 02:54:43;;;;;;;4.97;3.97;;;12.80;99.90;;;;;;5013028;28;20192;-91
2022/06/11 02:57:14;;;;;;;5.73;3.90;;;12.70;99.90;;;;;;4980454;28;20189;-91
2022/06/11 02:59:42;;;;;;;3.70;3.40;;;12.60;99.90;;;;;;4996778;28;20408;-91
2022/06/11 03:02:09;;;;;;;3.87;3.47;;;12.60;99.90;;;;;;4980208;28;20206;-92
2022/06/11 03:04:36;;;;;;;5.93;4.20;;;12.70;99.90;;;;;;4996493;28;20187;-91
2022/06/11 03:07:03;;;;;;;6.33;3.63;;;12.70;99.90;;;;;;4996351;28;20639;-91
2022/06/11 03:09:32;;;;;;;4.60;4.20;;;12.70;99.90;;;;;;4980349;28;20720;-91
2022/06/11 03:12:00;;;;;;;5.80;4.30;;;12.70;99.90;;;;;;4980094;28;20273;-91
2022/06/11 03:14:27;;;;;;;5.40;3.70;;;12.70;99.90;;;;;;4980167;28;20196;-91
2022/06/11 03:16:53;;;;;;;4.60;3.37;;;12.70;99.90;;;;;;4995692;28;20204;-91
2022/06/11 03:19:20;;;;;;;4.17;3.77;;;12.70;99.90;;;;;;4979881;28;20249;-91
2022/06/11 03:21:47;;;;;;;4.50;3.57;;;12.70;99.90;;;;;;4980101;28;20210;-91
2022/06/11 03:24:14;;;;;;;5.67;3.60;;;12.70;99.90;;;;;;4995130;28;20181;-91
2022/06/11 03:26:40;;;;;;;5.80;3.53;;;12.60;99.90;;;;;;4980105;28;20189;-91
2022/06/11 03:29:06;;;;;;;3.57;3.27;;;12.50;99.90;;;;;;4996058;28;20176;-90
2022/06/11 03:31:33;;;;;;;4.10;3.73;;;12.50;99.90;;;;;;4979491;28;20215;-90
2022/06/11 03:33:59;;;;;;;4.47;3.90;;;12.40;99.90;;;;;;4995552;28;20245;-91
2022/06/11 03:36:25;;;;;;;4.43;4.03;;;12.50;99.90;;;;;;4980228;28;20226;-91
2022/06/11 03:38:51;;;;;;;6.20;4.10;;;12.50;99.90;;;;;;4995870;28;20653;-90
2022/06/11 03:41:21;;;;;;;5.87;3.63;;;12.40;99.90;;;;;;4996299;28;20232;-90
2022/06/11 03:43:49;;;;;;;5.10;3.60;;;12.40;99.90;;;;;;4995812;28;20240;-90
2022/06/11 03:46:15;;;;;;;6.30;3.93;;;12.40;99.90;;;;;;4995536;28;20180;-91
2022/06/11 03:48:42;;;;;;;5.77;4.00;;;12.40;99.90;;;;;;4995604;28;20265;-91
2022/06/11 03:51:08;;;;;;;5.60;3.93;;;12.40;99.90;;;;;;4979710;28;20206;-91
2022/06/11 03:53:36;;;;;;;7.27;4.00;;;12.40;99.90;;;;;;4995543;28;20671;-92
2022/06/11 03:56:04;;;;;;;5.90;4.37;;;12.40;99.90;;;;;;4979373;28;20179;-91
2022/06/11 03:58:30;;;;;;;4.20;3.80;;;12.40;99.90;;;;;;4979696;28;20400;-91
2022/06/11 04:01:15;;;;;;;7.23;4.07;;;12.40;99.90;;;;;;4995949;28;20206;-91
2022/06/11 04:03:44;;;;;;;3.90;3.50;;;12.40;99.90;;;;;;4980687;28;20187;-91
2022/06/11 04:06:10;;;;;;;4.03;3.73;;;12.40;99.90;;;;;;4996721;28;20183;-90
2022/06/11 04:08:36;;;;;;;5.50;3.57;;;12.40;99.90;;;;;;4996355;28;20183;-91
2022/06/11 04:11:03;;;;;;;4.83;3.77;;;12.50;99.90;;;;;;4980138;28;20203;-91
2022/06/11 04:13:31;;;;;;;6.23;3.67;;;12.50;99.90;;;;;;4979937;28;20243;-90
2022/06/11 04:15:59;;;;;;;4.60;3.70;;;12.60;99.90;;;;;;5012677;28;20184;-91
2022/06/11 04:18:43;;;;;;;4.77;3.37;;;12.60;99.90;;;;;;4979873;28;20264;-91
2022/06/11 04:21:12;;;;;;;5.83;4.10;;;12.70;99.90;;;;;;4979212;28;20220;-91
2022/06/11 04:23:41;;;;;;;4.87;4.37;;;12.70;99.90;;;;;;4979577;28;20253;-91
2022/06/11 04:26:11;;;;;;;4.23;3.83;;;12.70;99.90;;;;;;4995926;28;20199;-91
2022/06/11 04:28:38;;;;;;;6.43;4.20;;;12.70;99.90;;;;;;4994849;28;20186;-91
2022/06/11 04:31:05;;;;;;;6.70;4.10;;;12.80;99.90;;;;;;4994853;28;20207;-91
2022/06/11 04:33:42;;;;;;;5.37;4.10;;;12.80;99.90;;;;;;4978856;28;20209;-91
2022/06/11 04:36:11;;;;;;;6.10;4.27;;;12.90;99.90;;;;;;4977764;28;20259;-91
2022/06/11 04:38:38;;;;;;;6.70;3.93;;;12.90;99.90;;;;;;4994989;28;20220;-90
2022/06/11 04:41:05;;;;;;;6.73;4.60;;;13.00;99.90;;;;;;4978718;28;20229;-90
2022/06/11 04:43:31;;;;;;;4.00;3.70;;;13.00;99.90;;;;;;4995056;28;20194;-90
2022/06/11 04:45:57;;;;;;;4.00;3.60;;;13.00;99.90;;;;;;4995155;28;20236;-91
2022/06/11 04:48:28;;;;;;;6.03;3.63;;;13.10;99.90;;;;;;4994392;28;20183;-91
2022/06/11 04:51:02;;;;;;;5.63;3.43;;;13.20;99.90;;;;;;4994536;28;20292;-91
2022/06/11 04:53:28;;;;;;;4.73;3.73;;;13.30;99.90;;;;;;4978715;28;20211;-90
2022/06/11 04:55:54;;;;;;;5.10;4.00;;;13.40;99.90;;;;;;4978852;28;20186;-90
2022/06/11 04:58:21;;;;;;;4.83;3.73;;;13.50;99.90;;;;;;4978797;28;20217;-90
2022/06/11 05:00:47;;;;;;;5.07;3.77;;;13.50;99.90;;;;;;4978378;28;20191;-90
2022/06/11 05:03:13;;;;;;;4.70;3.87;;;13.60;99.90;;;;;;5011787;28;20185;-90
2022/06/11 05:05:39;;;;;;;4.77;4.07;;;13.70;99.90;;;;;;4979390;28;20188;-91
2022/06/11 05:08:05;;;;;;;6.03;4.20;;;13.80;99.90;;;;;;4995613;28;20181;-90
2022/06/11 05:10:34;;;;;;;4.33;3.90;;;13.80;99.90;;;;;;4995940;28;20195;-91
2022/06/11 05:13:01;;;;;;;5.13;3.93;;;13.90;99.90;;;;;;4991820;28;20193;-93
2022/06/11 05:15:27;;;;;;;3.70;3.40;;;14.00;99.90;;;;;;5009833;28;20631;-91
2022/06/11 05:17:54;;;;;;;5.40;4.00;;;14.10;99.90;;;;;;4995192;28;20205;-91
2022/06/11 05:20:21;;;;;;;7.43;3.97;;;14.10;99.90;;;;;;4977881;28;20189;-91
2022/06/11 05:22:47;;;;;;;4.23;3.80;;;14.20;99.90;;;;;;4977941;28;20643;-91
2022/06/11 05:25:16;;;;;;;5.60;3.20;;;14.20;99.90;;;;;;4974506;28;20195;-90
2022/06/11 05:27:43;;;;;;;5.37;3.97;;;14.30;99.90;;;;;;4974211;28;20277;-91
2022/06/11 05:30:16;;;;;;;4.13;3.73;;;14.40;99.90;;;;;;4974348;28;20191;-91
2022/06/11 05:32:43;;;;;;;5.00;4.00;;;14.50;99.90;;;;;;4974205;28;20276;-91
2022/06/11 05:35:13;;;;;;;4.73;3.77;;;14.60;99.90;;;;;;4958454;28;20188;-91
2022/06/11 05:37:40;;;;;;;5.67;3.67;;;14.60;99.90;;;;;;4974863;28;20255;-91
2022/06/11 05:40:08;;;;;;;5.57;3.83;;;14.80;99.90;;;;;;4974529;28;20224;-91
2022/06/11 05:42:34;;;;;;;4.37;3.90;;;14.90;99.90;;;;;;4958400;28;20690;-90
2022/06/11 05:45:00;;;;;;;5.70;3.40;;;15.00;99.90;;;;;;4974465;28;20179;-91
2022/06/11 05:47:27;;;;;;;3.40;3.10;;;15.10;99.90;;;;;;4980152;28;20184;-91
2022/06/11 05:49:57;;;;;;;4.63;3.40;;;15.30;99.90;;;;;;4980684;28;20183;-90
2022/06/11 05:52:29;;;;;;;4.07;3.10;;;15.40;99.90;;;;;;4980587;28;20207;-91
2022/06/11 05:54:56;;;;;;;5.30;3.30;;;15.60;99.90;;;;;;4980955;28;20203;-91
2022/06/11 05:57:25;;;;;;;3.77;2.97;;;15.70;99.90;;;;;;4980776;28;20175;-91
2022/06/11 06:00:03;;;;;;;4.00;3.47;;;15.70;99.90;;;;;;4980885;28;20335;-92
2022/06/11 06:02:40;;;;;;;3.60;3.30;;;15.90;99.90;;;;;;4982204;28;20199;-91
2022/06/11 06:05:08;;;;;;;3.47;3.17;;;16.10;99.90;;;;;;4980352;28;20180;-91
2022/06/11 06:07:37;;;;;;;3.97;3.47;;;16.30;99.90;;;;;;4980430;28;20220;-91
2022/06/11 06:10:04;;;;;;;7.30;3.93;;;16.40;99.90;;;;;;4980536;28;20183;-91
2022/06/11 06:12:34;;;;;;;3.57;3.27;;;16.50;99.90;;;;;;4980221;28;20676;-91
2022/06/11 06:15:06;;;;;;;5.17;3.30;;;16.60;99.90;;;;;;4980833;28;20195;-91
2022/06/11 06:17:32;;;;;;;4.33;3.40;;;16.70;99.90;;;;;;4964515;28;20272;-91
2022/06/11 06:19:59;;;;;;;5.37;3.20;;;16.80;99.90;;;;;;4964745;28;20180;-91
2022/06/11 06:22:24;;;;;;;3.80;3.50;;;17.00;99.90;;;;;;4981015;28;20218;-91
2022/06/11 06:24:50;;;;;;;3.60;3.30;;;17.20;99.90;;;;;;4980998;28;20183;-91
2022/06/11 06:27:16;;;;;;;6.13;3.45;;;17.30;99.90;;;;;;4965327;28;20218;-91
2022/06/11 06:29:42;;;;;;;7.22;3.92;;;17.50;99.90;;;;;;4980848;28;20180;-91
2022/06/11 06:32:08;;;;;;;5.70;4.00;;;17.60;99.90;;;;;;4980664;28;20219;-90
2022/06/11 06:34:34;;;;;;;4.77;4.10;;;17.60;99.90;;;;;;4981014;28;20186;-91
2022/06/11 06:37:00;;;;;;;4.70;4.30;;;17.80;99.90;;;;;;4964453;28;20184;-91
2022/06/11 06:39:26;;;;;;;5.18;3.90;;;17.70;99.90;;;;;;4980321;28;20212;-91
2022/06/11 06:41:52;;;;;;;5.07;4.22;;;18.00;99.90;;;;;;4980538;28;20200;-91
2022/06/11 06:44:18;;;;;;;4.47;3.60;;;18.20;99.90;;;;;;4980598;28;20191;-91
2022/06/11 06:46:44;;;;;;;5.85;3.78;;;18.30;99.90;;;;;;4964109;28;20191;-91
2022/06/11 06:49:10;;;;;;;5.20;4.40;;;18.40;99.90;;;;;;4980121;28;20188;-92
2022/06/11 06:51:36;;;;;;;5.93;3.80;;;18.60;99.90;;;;;;4980405;28;20204;-91
2022/06/11 06:54:03;;;;;;;7.30;4.93;;;18.70;99.90;;;;;;4964207;28;20207;-91
2022/06/11 06:56:33;;;;;;;6.00;4.88;;;19.00;99.90;;;;;;4980438;28;20176;-91
2022/06/11 06:59:06;;;;;;;6.75;4.93;;;19.10;99.90;;;;;;4960953;28;20172;-91
2022/06/11 07:01:32;;;;;;;7.38;5.53;;;19.20;99.90;;;;;;4977046;28;20200;-91
2022/06/11 07:03:59;;;;;;;7.63;4.68;;;19.30;99.90;;;;;;4977081;28;20176;-91
2022/06/11 07:06:26;;;;;;;7.75;5.07;;;19.40;99.90;;;;;;4977027;28;20663;-92
2022/06/11 07:08:53;;;;;;;5.55;4.82;;;19.50;99.90;;;;;;4977018;28;20279;-91
2022/06/11 07:11:20;;;;;;;6.28;4.50;;;19.60;99.90;;;;;;4960759;28;20219;-91
2022/06/11 07:13:46;;;;;;;6.20;5.60;;;19.60;99.90;;;;;;4977060;28;20680;-91
2022/06/11 07:16:22;;;;;;;6.05;4.90;;;19.90;99.90;;;;;;4977036;28;20173;-92
2022/06/11 07:18:57;;;;;;;7.38;5.20;;;20.00;99.90;;;;;;4976856;28;20213;-91
2022/06/11 07:21:29;;;;;;;5.82;4.90;;;20.30;99.90;;;;;;4976864;28;20199;-91
2022/06/11 07:24:01;;;;;;;5.22;4.38;;;20.50;99.90;;;;;;4977261;28;20176;-91
2022/06/11 07:26:34;;;;;;;5.70;4.32;;;20.70;99.90;;;;;;4960796;28;20184;-91
2022/06/11 07:29:23;;;;;;;4.47;3.50;;;20.80;99.90;;;;;;4977083;28;20184;-91
2022/06/11 07:31:52;;;;;;;4.45;4.05;;;21.00;99.90;;;;;;4977010;28;20215;-92
2022/06/11 07:34:19;;;;;;;4.40;3.97;;;21.20;99.90;;;;;;4976819;28;20208;-91
2022/06/11 07:36:45;;;;;;;3.92;3.28;;;21.30;99.90;;;;;;4977020;28;20183;-91
2022/06/11 07:39:11;;;;;;;4.70;3.88;;;21.20;99.90;;;;;;4960792;28;20184;-91
2022/06/11 07:41:38;;;;;;;4.18;3.60;;;21.30;99.90;;;;;;4976269;28;20204;-92
2022/06/11 07:44:04;;;;;;;4.32;3.13;;;21.50;99.90;;;;;;4960491;28;20195;-91
2022/06/11 07:46:30;;;;;;;5.53;3.45;;;21.60;99.90;;;;;;4976630;28;20223;-91
2022/06/11 07:48:56;;;;;;;4.38;3.30;;;21.70;99.90;;;;;;4976428;28;20238;-92
2022/06/11 07:51:22;;;;;;;6.30;3.47;;;21.60;99.90;;;;;;4976088;28;20234;-92
2022/06/11 07:53:49;;;;;;;3.90;3.03;;;21.80;99.90;;;;;;4976197;28;20207;-92
2022/06/11 07:56:18;;;;;;;4.15;3.00;;;22.00;99.90;;;;;;4976717;28;20176;-92
2022/06/11 07:58:44;;;;;;;4.13;2.83;;;22.00;99.90;;;;;;4976389;28;20191;-92
2022/06/11 08:01:10;;;;;;;5.32;2.70;;;22.20;99.90;;;;;;4975977;28;20199;-91
2022/06/11 08:03:38;;;;;;;3.95;2.95;;;22.30;99.90;;;;;;4976533;28;20176;-92
2022/06/11 08:06:05;;;;;;;3.67;2.95;;;22.50;99.90;;;;;;4960175;28;20188;-91
2022/06/11 08:08:32;;;;;;;4.45;2.60;;;22.50;99.90;;;;;;4959775;28;20184;-92
2022/06/11 08:11:00;;;;;;;3.28;2.97;;;22.60;99.90;;;;;;4975896;28;20215;-91
2022/06/11 08:13:26;;;;;;;3.88;2.53;;;22.50;99.90;;;;;;4975957;28;20235;-91
2022/06/11 08:15:53;;;;;;;2.47;2.28;;;22.60;99.90;;;;;;4960263;28;20191;-91
2022/06/11 08:18:21;;;;;;;3.13;2.35;;;22.50;99.90;;;;;;4976448;28;20214;-92
2022/06/11 08:20:47;;;;;;;5.45;2.47;;;22.70;99.90;;;;;;4975787;28;20183;-91
2022/06/11 08:23:14;;;;;;;3.17;2.30;;;22.60;99.90;;;;;;4959828;28;20180;-92
2022/06/11 08:25:40;;;;;;;3.83;2.10;;;22.90;99.90;;;;;;4975566;28;20187;-92
2022/06/11 08:28:06;;;;;;;2.85;2.10;;;23.10;99.90;;;;;;4976088;28;20188;-92
2022/06/11 08:30:34;;;;;;;2.58;1.92;;;23.30;99.90;;;;;;4975949;28;20184;-92
2022/06/11 08:33:00;;;;;;;3.42;1.92;;;23.70;99.90;;;;;;4975961;28;20298;-91
2022/06/11 08:35:28;;;;;;;3.55;2.05;;;23.70;99.90;;;;;;4992313;28;20242;-92
2022/06/11 08:37:55;;;;;;;3.22;1.90;;;24.00;99.90;;;;;;4976322;28;20204;-91
2022/06/11 08:40:39;;;;;;;2.65;1.80;;;24.00;99.90;;;;;;4976635;28;20218;-92
2022/06/11 08:43:50;;;;;;;3.97;2.47;;;24.20;99.90;;;;;;4961080;28;20176;-92
2022/06/11 08:46:18;;;;;;;2.38;1.92;;;24.10;99.90;;;;;;4918198;29;20186;-91
2022/06/11 08:49:26;;;;;;;4.78;2.05;;;24.10;99.90;;;;;;4918131;29;20217;-92
2022/06/11 08:51:58;;;;;;;4.97;2.35;;;24.50;99.90;;;;;;4964649;28;20247;-92
2022/06/11 08:54:29;;;;;;;3.47;1.80;;;24.60;99.90;;;;;;4959489;28;20214;-91
2022/06/11 08:57:08;;;;;;;2.25;1.92;;;24.80;99.90;;;;;;4959503;28;20164;-91
2022/06/11 08:59:46;;;;;;;4.28;1.80;;;24.90;99.90;;;;;;4959128;28;20175;-91
2022/06/11 09:02:21;;;;;;;2.53;2.10;;;25.20;99.90;;;;;;4975400;28;20287;-92
2022/06/11 09:05:19;;;;;;;2.72;1.80;;;25.30;99.90;;;;;;4975292;28;20255;-92
2022/06/11 09:08:04;;;;;;;4.53;2.03;;;25.50;99.90;;;;;;4959294;28;20303;-92
2022/06/11 09:10:45;;;;;;;3.42;2.13;;;25.50;99.90;;;;;;4959090;28;20629;-93
2022/06/11 09:13:41;;;;;;;2.45;1.80;;;25.60;99.90;;;;;;4959985;28;20199;-92
2022/06/11 09:16:31;;;;;;;4.00;1.70;;;25.90;99.90;;;;;;4991235;28;20188;-92
2022/06/11 09:19:22;;;;;;;4.53;2.10;;;26.20;99.90;;;;;;4963177;28;20177;-92
2022/06/11 09:22:00;;;;;;;2.50;1.67;;;26.30;99.90;;;;;;4958257;28;20271;-92
2022/06/11 09:24:45;;;;;;;3.08;2.08;;;26.40;99.90;;;;;;4958960;28;20187;-92
2022/06/11 09:27:28;;;;;;;3.70;1.90;;;26.50;99.90;;;;;;4959214;28;20219;-91
2022/06/11 09:30:12;;;;;;;3.42;1.60;;;26.70;99.90;;;;;;4974626;28;20226;-93
2022/06/11 09:32:49;;;;;;;3.50;1.90;;;26.80;99.90;;;;;;4974553;28;20219;-92
2022/06/11 09:35:41;;;;;;;5.00;2.03;;;26.90;99.90;;;;;;4974937;28;20204;-91
2022/06/11 09:38:26;;;;;;;3.15;1.65;;;26.90;99.90;;;;;;4974995;28;20176;-92
2022/06/11 09:41:27;;;;;;;4.60;1.80;;;27.00;99.90;;;;;;4958842;28;20225;-91
2022/06/11 09:43:59;;;;;;;2.30;1.60;;;27.20;98.90;;;;;;4956200;28;20247;-91
2022/06/11 09:46:28;;;;;;;3.72;1.83;;;27.40;99.90;;;;;;4958541;28;20186;-93
2022/06/11 09:49:20;;;;;;;3.95;2.08;;;27.50;98.70;;;;;;4958204;28;20199;-93
2022/06/11 09:52:07;;;;;;;4.38;2.20;;;27.60;97.20;;;;;;4974616;28;20290;-91
2022/06/11 09:54:48;;;;;;;4.80;2.10;;;27.80;96.90;;;;;;4974517;28;20176;-92
2022/06/11 09:57:32;;;;;;;5.15;2.00;;;27.80;95.70;;;;;;4958310;28;20632;-92
2022/06/11 10:00:02;;;;;;;4.03;1.70;;;27.80;96.20;;;;;;4974423;28;20184;-92
2022/06/11 10:03:07;;;;;;;3.22;1.80;;;27.80;96.60;;;;;;4974737;28;20204;-92
2022/06/11 10:05:36;;;;;;;4.07;1.90;;;27.90;94.70;;;;;;4971402;28;20199;-94
2022/06/11 10:08:17;;;;;;;3.58;1.63;;;27.70;94.30;;;;;;4974370;28;20258;-92
2022/06/11 10:10:47;;;;;;;3.55;1.60;;;27.80;97.30;;;;;;4974213;28;20180;-92
2022/06/11 10:13:43;;;;;;;3.90;1.80;;;27.90;95.50;;;;;;4974302;28;20298;-93
2022/06/11 10:16:38;;;;;;;3.03;1.60;;;28.10;95.30;;;;;;4973290;28;20184;-92
2022/06/11 10:19:26;;;;;;;3.40;1.80;;;28.30;94.30;;;;;;4973046;28;20203;-92
2022/06/11 10:22:12;;;;;;;1.63;1.42;;;28.40;94.50;;;;;;4974159;28;20200;-92
2022/06/11 10:24:47;;;;;;;4.45;2.10;;;28.50;94.50;;;;;;4974488;28;20209;-92
2022/06/11 10:27:18;;;;;;;4.10;1.73;;;28.10;93.90;;;;;;4958075;28;20231;-92
2022/06/11 10:29:52;;;;;;;3.47;1.80;;;27.40;93.20;;;;;;4957875;28;20168;-92
2022/06/11 10:32:36;;;;;;;3.33;1.80;;;27.20;93.20;;;;;;4973893;28;20212;-92
2022/06/11 10:35:11;;;;;;;4.57;1.90;;;27.10;93.30;;;;;;4978020;28;20216;-92
2022/06/11 10:37:47;;;;;;;3.95;1.75;;;27.20;91.90;;;;;;4961518;28;20187;-92
2022/06/11 10:40:39;;;;;;;4.40;1.60;;;27.40;91.60;;;;;;4977616;28;20168;-93
2022/06/11 10:43:24;;;;;;;3.58;1.75;;;27.70;93.20;;;;;;4977658;28;20198;-92
2022/06/11 10:45:50;;;;;;;4.60;1.67;;;27.80;92.50;;;;;;4961700;28;20176;-92
2022/06/11 10:48:20;;;;;;;2.10;1.35;;;27.80;94.90;;;;;;4961882;28;20184;-92
2022/06/11 10:50:47;;;;;;;2.67;1.50;;;27.60;92.50;;;;;;4977429;28;20291;-92
2022/06/11 10:53:23;;;;;;;2.92;1.80;;;27.50;92.50;;;;;;4977460;28;20243;-92
2022/06/11 10:55:51;;;;;;;3.05;1.67;;;27.30;92.50;;;;;;4961431;28;20211;-92
2022/06/11 10:58:25;;;;;;;3.10;1.73;;;27.40;94.60;;;;;;4977533;28;20208;-93
2022/06/11 11:01:02;;;;;;;1.90;1.40;;;27.70;94.60;;;;;;4977443;28;20854;-92
2022/06/11 11:03:41;;;;;;;2.65;1.50;;;28.00;94.40;;;;;;4961522;28;20226;-92
2022/06/11 11:06:16;;;;;;;2.92;1.60;;;28.00;92.70;;;;;;4961360;28;20183;-92
2022/06/11 11:08:52;;;;;;;3.00;1.60;;;28.10;92.60;;;;;;4977227;28;20203;-92
2022/06/11 11:11:18;;;;;;;3.47;1.80;;;28.00;93.50;;;;;;4976696;28;20205;-92
2022/06/11 11:13:46;;;;;;;4.38;2.08;;;27.70;92.90;;;;;;4976967;28;20239;-92
2022/06/11 11:16:12;;;;;;;4.95;1.70;;;27.90;93.10;;;;;;4977263;28;20237;-92
2022/06/11 11:19:06;;;;;;;3.50;1.70;;;28.10;94.80;;;;;;4960937;28;20172;-92
2022/06/11 11:21:56;;;;;;;3.28;1.50;;;28.20;94.20;;;;;;4961293;28;20419;-92
2022/06/11 11:24:36;;;;;;;2.83;1.30;;;28.20;92.80;;;;;;4976896;28;20172;-93
2022/06/11 11:27:26;;;;;;;2.80;1.73;;;28.40;92.50;;;;;;4976877;28;20179;-92
2022/06/11 11:30:00;;;;;;;4.90;1.77;;;28.40;92.80;;;;;;4961148;28;20227;-92
2022/06/11 11:32:38;;;;;;;5.65;1.73;;;28.20;92.80;;;;;;4976463;28;20297;-92
2022/06/11 11:35:26;;;;;;;3.00;1.60;;;28.10;93.00;;;;;;4976858;28;20179;-92
2022/06/11 11:38:02;;;;;;;3.53;1.77;;;28.20;92.50;;;;;;4976931;28;20259;-92
2022/06/11 11:40:35;;;;;;;4.40;1.77;;;27.80;93.10;;;;;;4960932;28;20194;-93
2022/06/11 11:43:09;;;;;;;2.35;1.50;;;28.00;92.20;;;;;;4976668;28;20258;-92
2022/06/11 11:45:59;;;;;;;2.88;1.65;;;28.20;92.90;;;;;;4960409;28;20182;-92
2022/06/11 11:48:24;;;;;;;4.30;1.52;;;28.50;93.10;;;;;;4976665;28;20207;-92
2022/06/11 11:50:55;;;;;;;3.85;1.83;;;28.60;93.60;;;;;;4960706;28;20604;-93
2022/06/11 11:53:28;;;;;;;5.55;1.80;;;28.30;91.70;;;;;;4976536;28;20223;-92
2022/06/11 11:56:17;;;;;;;4.90;1.80;;;28.10;93.00;;;;;;4976390;28;20219;-92
2022/06/11 11:58:52;;;;;;;1.73;1.63;;;28.10;92.10;;;;;;4976546;28;20160;-92
2022/06/11 12:01:18;;;;;;;2.13;1.50;;;28.20;92.60;;;;;;4976708;28;20242;-93
2022/06/11 12:03:51;;;;;;;2.42;1.50;;;28.30;93.20;;;;;;4976119;28;20192;-93
2022/06/11 12:06:31;;;;;;;3.55;1.60;;;28.10;92.70;;;;;;4976454;28;20187;-92
2022/06/11 12:08:58;;;;;;;2.17;1.83;;;28.10;92.80;;;;;;4976179;28;20186;-92
2022/06/11 12:11:24;;;;;;;4.03;1.88;;;27.90;92.50;;;;;;4976440;28;20297;-93
2022/06/11 12:13:53;;;;;;;3.72;1.65;;;28.10;92.40;;;;;;4960966;28;20208;-93
2022/06/11 12:16:26;;;;;;;3.42;1.70;;;28.30;91.20;;;;;;4976576;28;20191;-93
2022/06/11 12:18:57;;;;;;;3.80;1.77;;;28.50;92.40;;;;;;4976983;28;20319;-92
2022/06/11 12:21:28;;;;;;;4.40;1.67;;;28.90;91.30;;;;;;4977625;28;20246;-93
2022/06/11 12:23:58;;;;;;;2.47;1.85;;;28.90;91.40;;;;;;4977102;28;20279;-92
2022/06/11 12:26:32;;;;;;;2.00;1.60;;;28.80;91.00;;;;;;4960983;28;20238;-92
2022/06/11 12:29:14;;;;;;;3.22;1.55;;;29.10;92.20;;;;;;4976761;28;20179;-93
2022/06/11 12:31:41;;;;;;;2.75;1.60;;;29.30;92.60;;;;;;4975738;28;20216;-92
2022/06/11 12:34:14;;;;;;;4.75;1.88;;;29.30;90.80;;;;;;4959668;28;20271;-92
2022/06/11 12:36:56;;;;;;;1.90;1.40;;;29.40;91.70;;;;;;4959929;28;20183;-92
2022/06/11 12:39:24;;;;;;;3.50;1.80;;;29.50;92.00;;;;;;4959909;28;20617;-93
2022/06/11 12:42:09;;;;;;;3.22;1.70;;;29.70;92.00;;;;;;4959482;28;20208;-93
2022/06/11 12:44:46;;;;;;;4.45;1.70;;;29.80;92.10;;;;;;4967001;28;20164;-94
2022/06/11 12:47:33;;;;;;;1.88;1.75;;;29.50;90.40;;;;;;4969694;28;20180;-92
2022/06/11 12:50:18;;;;;;;3.88;1.90;;;29.90;90.60;;;;;;4960057;28;20194;-92
2022/06/11 12:53:04;;;;;;;9.48;2.42;;;30.00;90.80;;;;;;4959298;28;20215;-92
2022/06/11 12:55:36;;;;;;;3.15;1.88;;;29.90;90.00;;;;;;4974725;28;20254;-92
2022/06/11 12:58:31;;;;;;;3.05;1.73;;;30.10;90.90;;;;;;4958803;28;20183;-93
2022/06/11 13:01:03;;;;;;;4.38;1.90;;;30.30;90.90;;;;;;4959055;28;20211;-93
2022/06/11 13:03:32;;;;;;;2.83;1.90;;;30.50;89.20;;;;;;4959821;28;20180;-92
2022/06/11 13:06:27;;;;;;;4.38;1.70;;;30.40;87.30;;;;;;4959284;28;20187;-92
2022/06/11 13:09:08;;;;;;;2.25;1.58;;;30.40;87.20;;;;;;4959069;28;20243;-93
2022/06/11 13:11:53;;;;;;;2.47;1.45;;;30.60;87.60;;;;;;4959457;28;20294;-92
2022/06/11 13:14:40;;;;;;;3.13;1.73;;;30.80;89.20;;;;;;4959020;28;20235;-92
2022/06/11 13:17:47;;;;;;;1.90;1.70;;;30.90;88.20;;;;;;4959357;28;20243;-92
2022/06/11 13:20:33;;;;;;;3.55;1.80;;;31.00;86.00;;;;;;4958797;28;20191;-92